createdAt,value
2019-01-10T00:00:10.197Z,256.53
2019-01-10T00:02:37.628Z,266.73
2019-01-10T00:05:06.160Z,265.73
2019-01-10T00:07:33.609Z,280.93
2019-01-10T00:10:01.004Z,261.20
2019-01-10T00:12:29.693Z,270.43
2019-01-10T00:14:57.150Z,264.43
2019-01-10T00:17:28.533Z,269.60
2019-01-10T00:19:55.877Z,225.70
2019-01-10T00:22:25.015Z,177.93
2019-01-10T00:24:52.315Z,159.67
2019-01-10T00:27:20.241Z,198.83
2019-01-10T00:29:47.935Z,238.27
2019-01-10T00:32:15.624Z,217.70
2019-01-10T00:34:43.294Z,162.13
2019-01-10T00:37:10.838Z,239.50
2019-01-10T00:39:39.443Z,175.87
2019-01-10T00:42:07.070Z,197.17
2019-01-10T00:44:34.678Z,190.73
2019-01-10T00:47:02.196Z,156.20
2019-01-10T00:49:29.703Z,153.90
2019-01-10T00:51:57.109Z,176.63
2019-01-10T00:54:24.483Z,160.83
2019-01-10T00:56:51.997Z,186.83
2019-01-10T00:59:19.655Z,147.43
2019-01-10T01:01:47.114Z,149.87
2019-01-10T01:04:14.602Z,161.57
2019-01-10T01:06:42.033Z,148.83
2019-01-10T01:09:11.854Z,169.63
2019-01-10T01:11:39.315Z,176.37
2019-01-10T01:14:06.890Z,178.00
2019-01-10T01:16:34.360Z,179.20
2019-01-10T01:19:01.768Z,172.87
2019-01-10T01:21:29.264Z,149.27
2019-01-10T01:23:56.614Z,148.60
2019-01-10T01:26:24.070Z,152.13
2019-01-10T01:28:51.632Z,169.53
2019-01-10T01:31:19.047Z,161.97
2019-01-10T01:33:46.442Z,169.13
2019-01-10T01:36:13.908Z,165.60
2019-01-10T01:38:44.060Z,159.27
2019-01-10T01:41:11.375Z,153.07
2019-01-10T01:43:38.820Z,164.60
2019-01-10T01:46:07.754Z,147.20
2019-01-10T01:48:35.288Z,158.77
2019-01-10T01:51:03.494Z,160.63
2019-01-10T01:53:30.879Z,162.10
2019-01-10T01:55:58.304Z,168.07
2019-01-10T01:58:27.836Z,153.87
2019-01-10T02:00:55.438Z,167.63
2019-01-10T02:03:25.553Z,166.73
2019-01-10T02:05:53.224Z,174.87
2019-01-10T02:08:20.686Z,169.43
2019-01-10T02:10:48.108Z,175.63
2019-01-10T02:13:16.873Z,141.07
2019-01-10T02:15:44.781Z,157.43
2019-01-10T02:18:12.200Z,142.43
2019-01-10T02:20:39.682Z,158.03
2019-01-10T02:23:07.171Z,151.27
2019-01-10T02:25:34.478Z,151.83
2019-01-10T02:28:01.944Z,159.27
2019-01-10T02:30:30.360Z,153.00
2019-01-10T02:32:57.994Z,162.97
2019-01-10T02:35:25.605Z,163.87
2019-01-10T02:37:55.356Z,153.83
2019-01-10T02:40:22.197Z,153.17
2019-01-10T02:42:49.558Z,176.17
2019-01-10T02:45:18.047Z,162.83
2019-01-10T02:47:45.440Z,162.63
2019-01-10T02:50:14.470Z,166.10
2019-01-10T02:52:41.987Z,158.73
2019-01-10T02:55:09.487Z,174.87
2019-01-10T02:57:36.921Z,178.17
2019-01-10T03:00:05.968Z,171.10
2019-01-10T03:02:33.465Z,186.23
2019-01-10T03:05:00.910Z,172.53
2019-01-10T03:07:28.248Z,179.97
2019-01-10T03:09:55.941Z,171.27
2019-01-10T03:12:23.361Z,173.40
2019-01-10T03:14:51.931Z,163.97
2019-01-10T03:17:19.273Z,170.83
2019-01-10T03:19:46.823Z,172.10
2019-01-10T03:22:14.166Z,156.90
2019-01-10T03:24:41.546Z,155.50
2019-01-10T03:27:08.928Z,182.40
2019-01-10T03:29:36.348Z,199.23
2019-01-10T03:32:03.790Z,177.37
2019-01-10T03:34:31.244Z,177.30
2019-01-10T03:36:58.855Z,172.97
2019-01-10T03:39:28.250Z,173.93
2019-01-10T03:41:55.713Z,211.87
2019-01-10T03:44:23.106Z,155.00
2019-01-10T03:46:50.553Z,177.60
2019-01-10T03:49:17.898Z,170.83
2019-01-10T03:51:47.374Z,153.00
2019-01-10T03:54:14.713Z,150.60
2019-01-10T03:56:42.183Z,139.60
2019-01-10T03:59:09.539Z,166.60
2019-01-10T04:01:36.959Z,160.30
2019-01-10T04:04:04.412Z,154.20
2019-01-10T04:06:31.773Z,147.97
2019-01-10T04:08:59.232Z,148.40
2019-01-10T04:11:26.773Z,148.30
2019-01-10T04:13:57.526Z,134.90
2019-01-10T04:16:23.255Z,126.97
2019-01-10T04:18:50.688Z,122.43
2019-01-10T04:21:18.092Z,123.73
2019-01-10T04:23:45.464Z,141.67
2019-01-10T04:26:12.861Z,123.07
2019-01-10T04:28:40.327Z,139.17
2019-01-10T04:31:07.737Z,129.93
2019-01-10T04:33:35.227Z,138.77
2019-01-10T04:36:02.575Z,143.53
2019-01-10T04:38:30.039Z,150.47
2019-01-10T04:40:57.494Z,135.20
2019-01-10T04:43:24.923Z,127.23
2019-01-10T04:45:52.268Z,124.90
2019-01-10T04:48:19.734Z,132.93
2019-01-10T04:50:47.139Z,137.43
2019-01-10T04:53:14.472Z,163.80
2019-01-10T04:55:41.933Z,119.77
2019-01-10T04:58:09.664Z,136.37
2019-01-10T05:00:37.072Z,120.63
2019-01-10T05:03:04.525Z,124.07
2019-01-10T05:05:31.927Z,113.90
2019-01-10T05:07:59.795Z,108.77
2019-01-10T05:10:27.305Z,108.03
2019-01-10T05:12:54.742Z,97.10
2019-01-10T05:15:22.275Z,111.90
2019-01-10T05:17:49.815Z,97.97
2019-01-10T05:20:17.818Z,105.17
2019-01-10T05:22:45.235Z,111.77
2019-01-10T05:25:12.727Z,104.33
2019-01-10T05:27:40.187Z,105.30
2019-01-10T05:30:18.541Z,114.17
2019-01-10T05:32:46.008Z,111.70
2019-01-10T05:35:13.437Z,110.80
2019-01-10T05:37:40.897Z,106.10
2019-01-10T05:40:09.888Z,88.40
2019-01-10T05:42:37.311Z,88.47
2019-01-10T05:45:06.389Z,84.23
2019-01-10T05:47:35.707Z,81.93
2019-01-10T05:50:03.219Z,73.07
2019-01-10T05:52:30.798Z,79.33
2019-01-10T05:54:58.230Z,77.50
2019-01-10T05:57:25.625Z,66.53
2019-01-10T05:59:53.157Z,73.63
2019-01-10T06:02:20.597Z,69.23
2019-01-10T06:04:48.165Z,64.53
2019-01-10T06:07:15.556Z,57.23
2019-01-10T06:09:42.956Z,70.77
2019-01-10T06:12:10.348Z,68.63
2019-01-10T06:14:37.811Z,62.07
2019-01-10T06:17:05.214Z,74.50
2019-01-10T06:19:32.646Z,73.17
2019-01-10T06:22:00.244Z,65.10
2019-01-10T06:24:27.712Z,72.53
2019-01-10T06:26:55.068Z,69.67
2019-01-10T06:29:22.488Z,54.87
2019-01-10T06:31:49.877Z,54.97
2019-01-10T06:34:17.212Z,68.37
2019-01-10T06:36:44.698Z,73.73
2019-01-10T06:39:12.160Z,72.13
2019-01-10T06:41:39.587Z,60.27
2019-01-10T06:44:07.037Z,72.47
2019-01-10T06:46:34.453Z,75.37
2019-01-10T06:49:01.807Z,65.40
2019-01-10T06:51:29.201Z,77.60
2019-01-10T06:53:56.534Z,86.30
2019-01-10T06:56:23.964Z,83.30
2019-01-10T06:58:51.434Z,78.53
2019-01-10T07:01:18.842Z,85.80
2019-01-10T07:03:46.330Z,87.13
2019-01-10T07:06:13.879Z,90.60
2019-01-10T07:08:41.306Z,102.77
2019-01-10T07:11:08.699Z,96.60
2019-01-10T07:13:36.158Z,111.97
2019-01-10T07:16:04.545Z,103.23
2019-01-10T07:18:33.418Z,102.07
2019-01-10T07:21:00.988Z,94.80
2019-01-10T07:23:29.362Z,105.10
2019-01-10T07:25:56.688Z,92.27
2019-01-10T07:28:24.149Z,96.87
2019-01-10T07:30:52.120Z,97.93
2019-01-10T07:33:19.966Z,97.27
2019-01-10T07:35:50.611Z,89.40
2019-01-10T07:38:17.986Z,96.43
2019-01-10T07:40:48.321Z,103.37
2019-01-10T07:43:18.840Z,112.83
2019-01-10T07:45:46.341Z,111.00
2019-01-10T07:48:13.757Z,110.00
2019-01-10T07:50:41.172Z,120.63
2019-01-10T07:53:08.847Z,112.93
2019-01-10T07:55:36.250Z,117.30
2019-01-10T07:58:05.122Z,114.37
2019-01-10T08:00:32.905Z,104.37
2019-01-10T08:03:00.221Z,117.10
2019-01-10T08:05:27.598Z,116.27
2019-01-10T08:07:55.187Z,104.73
2019-01-10T08:10:22.531Z,107.00
2019-01-10T08:12:50.024Z,128.33
2019-01-10T08:15:18.616Z,111.07
2019-01-10T08:17:46.076Z,118.63
2019-01-10T08:20:13.600Z,127.37
2019-01-10T08:22:41.193Z,132.53
2019-01-10T08:25:09.402Z,126.43
2019-01-10T08:27:36.788Z,137.20
2019-01-10T08:30:05.757Z,131.13
2019-01-10T08:32:33.167Z,136.30
2019-01-10T08:35:00.704Z,140.63
2019-01-10T08:37:28.056Z,149.53
2019-01-10T08:39:55.377Z,143.10
2019-01-10T08:42:22.836Z,150.73
2019-01-10T08:44:51.184Z,151.87
2019-01-10T08:47:18.664Z,160.33
2019-01-10T08:49:46.187Z,162.77
2019-01-10T08:52:14.490Z,170.00
2019-01-10T08:54:41.989Z,163.37
2019-01-10T08:57:09.424Z,164.13
2019-01-10T08:59:36.935Z,163.40
2019-01-10T09:02:04.408Z,163.13
2019-01-10T09:04:33.686Z,145.67
2019-01-10T09:07:01.050Z,143.93
2019-01-10T09:09:28.376Z,160.97
2019-01-10T09:11:55.904Z,132.23
2019-01-10T09:14:23.242Z,147.00
2019-01-10T09:16:50.602Z,114.03
2019-01-10T09:19:18.172Z,127.67
2019-01-10T09:21:45.576Z,133.87
2019-01-10T09:24:14.370Z,139.17
2019-01-10T09:26:41.963Z,130.87
2019-01-10T09:29:10.318Z,139.77
2019-01-10T09:31:37.720Z,132.50
2019-01-10T09:34:06.653Z,124.23
2019-01-10T09:36:34.049Z,120.10
2019-01-10T09:39:01.413Z,143.43
2019-01-10T09:41:31.789Z,128.53
2019-01-10T09:44:00.443Z,115.27
2019-01-10T09:46:27.947Z,100.70
2019-01-10T09:48:55.460Z,110.97
2019-01-10T09:51:22.852Z,108.47
2019-01-10T09:53:50.292Z,123.27
2019-01-10T09:56:17.670Z,120.80
2019-01-10T09:58:46.744Z,126.33
2019-01-10T10:01:15.591Z,131.50
2019-01-10T10:03:43.007Z,135.30
2019-01-10T10:06:10.397Z,111.47
2019-01-10T10:08:37.802Z,108.40
2019-01-10T10:11:05.320Z,112.53
2019-01-10T10:13:32.829Z,116.07
2019-01-10T10:16:00.201Z,112.70
2019-01-10T10:18:27.748Z,110.90
2019-01-10T10:20:55.160Z,109.90
2019-01-10T10:23:26.943Z,116.60
2019-01-10T10:25:53.232Z,111.50
2019-01-10T10:28:23.407Z,108.57
2019-01-10T10:30:50.761Z,119.33
2019-01-10T10:33:18.209Z,110.17
2019-01-10T10:35:47.925Z,107.47
2019-01-10T10:38:15.704Z,107.07
2019-01-10T10:40:43.247Z,114.53
2019-01-10T10:43:12.045Z,121.73
2019-01-10T10:45:39.467Z,110.57
2019-01-10T10:48:07.047Z,118.73
2019-01-10T10:50:34.370Z,116.17
2019-01-10T10:53:03.437Z,111.47
2019-01-10T10:55:30.989Z,118.03
2019-01-10T10:57:58.349Z,115.97
2019-01-10T11:00:26.432Z,122.37
2019-01-10T11:02:53.911Z,120.77
2019-01-10T11:05:21.424Z,136.23
2019-01-10T11:07:49.001Z,134.23
2019-01-10T11:10:20.333Z,138.43
2019-01-10T11:12:47.808Z,122.87
2019-01-10T11:15:15.730Z,138.27
2019-01-10T11:17:43.097Z,115.67
2019-01-10T11:20:11.931Z,106.90
2019-01-10T11:22:39.353Z,119.03
2019-01-10T11:25:08.427Z,126.33
2019-01-10T11:27:35.857Z,104.13
2019-01-10T11:30:05.278Z,93.03
2019-01-10T11:32:32.716Z,91.67
2019-01-10T11:35:00.171Z,97.30
2019-01-10T11:37:27.554Z,90.03
2019-01-10T11:39:57.587Z,98.07
2019-01-10T11:42:24.920Z,81.33
2019-01-10T11:44:54.129Z,92.73
2019-01-10T11:47:21.579Z,57.53
2019-01-10T11:49:49.032Z,71.80
2019-01-10T11:52:16.886Z,72.77
2019-01-10T11:54:44.402Z,80.13
2019-01-10T11:57:12.286Z,77.37
2019-01-10T11:59:39.630Z,80.20
2019-01-10T12:02:08.292Z,86.90
2019-01-10T12:04:40.828Z,90.13
2019-01-10T12:07:09.470Z,86.40
2019-01-10T12:09:36.977Z,86.87
2019-01-10T12:12:04.443Z,86.10
2019-01-10T12:14:31.795Z,91.00
2019-01-10T12:16:59.310Z,89.97
2019-01-10T12:19:26.713Z,88.40
2019-01-10T12:21:54.050Z,84.70
2019-01-10T12:24:21.429Z,115.67
2019-01-10T12:26:48.897Z,109.90
2019-01-10T12:29:16.309Z,119.23
2019-01-10T12:31:44.267Z,107.87
2019-01-10T12:34:11.743Z,139.23
2019-01-10T12:36:39.093Z,128.63
2019-01-10T12:39:07.024Z,116.50
2019-01-10T12:41:34.386Z,90.33
2019-01-10T12:44:01.735Z,86.93
2019-01-10T12:46:37.272Z,92.93
2019-01-10T12:48:58.248Z,90.33
2019-01-10T12:51:25.604Z,83.17
2019-01-10T12:53:53.020Z,76.97
2019-01-10T12:56:22.079Z,77.33
2019-01-10T12:58:49.485Z,72.33
2019-01-10T13:01:17.131Z,85.70
2019-01-10T13:03:44.569Z,81.83
2019-01-10T13:06:11.957Z,89.73
2019-01-10T13:08:39.414Z,76.90
2019-01-10T13:11:06.867Z,83.10
2019-01-10T13:13:34.274Z,88.53
2019-01-10T13:16:01.824Z,86.57
2019-01-10T13:18:29.219Z,93.77
2019-01-10T13:20:56.611Z,90.20
2019-01-10T13:23:24.070Z,84.83
2019-01-10T13:25:59.330Z,92.87
2019-01-10T13:28:20.633Z,93.90
2019-01-10T13:30:48.001Z,103.50
2019-01-10T13:33:15.422Z,102.40
2019-01-10T13:35:42.826Z,101.03
2019-01-10T13:38:10.283Z,101.97
2019-01-10T13:40:37.678Z,98.87
2019-01-10T13:43:05.088Z,95.03
2019-01-10T13:45:32.601Z,104.63
2019-01-10T13:48:00.072Z,102.47
2019-01-10T13:50:28.021Z,102.17
2019-01-10T13:52:56.500Z,105.13
2019-01-10T13:55:24.472Z,93.23
2019-01-10T13:57:51.900Z,97.47
2019-01-10T14:00:20.450Z,108.37
2019-01-10T14:02:47.779Z,116.77
2019-01-10T14:05:15.222Z,105.07
2019-01-10T14:07:42.751Z,108.57
2019-01-10T14:10:11.750Z,107.87
2019-01-10T14:12:39.286Z,100.67
2019-01-10T14:15:08.538Z,116.07
2019-01-10T14:17:36.007Z,119.93
2019-01-10T14:20:04.340Z,141.50
2019-01-10T14:22:34.429Z,125.00
2019-01-10T14:25:01.825Z,141.27
2019-01-10T14:27:29.222Z,144.57
2019-01-10T14:29:59.549Z,128.23
2019-01-10T14:32:27.008Z,124.87
2019-01-10T14:34:58.732Z,118.83
2019-01-10T14:37:26.624Z,124.97
2019-01-10T14:39:54.034Z,136.73
2019-01-10T14:42:21.353Z,115.37
2019-01-10T14:44:58.079Z,110.63
2019-01-10T14:47:26.926Z,117.47
2019-01-10T14:49:56.952Z,106.33
2019-01-10T14:52:27.131Z,91.20
2019-01-10T14:54:53.773Z,102.03
2019-01-10T14:57:21.145Z,109.50
2019-01-10T14:59:48.533Z,106.60
2019-01-10T15:02:15.932Z,99.20
2019-01-10T15:04:47.020Z,107.50
2019-01-10T15:07:14.447Z,110.37
2019-01-10T15:09:41.787Z,97.97
2019-01-10T15:12:09.307Z,124.63
2019-01-10T15:14:36.741Z,122.03
2019-01-10T15:17:04.076Z,145.10
2019-01-10T15:19:31.616Z,121.97
2019-01-10T15:21:59.097Z,148.47
2019-01-10T15:24:26.583Z,133.60
2019-01-10T15:26:53.961Z,102.13
2019-01-10T15:29:21.757Z,109.93
2019-01-10T15:31:49.251Z,133.00
2019-01-10T15:34:16.629Z,138.23
2019-01-10T15:36:43.977Z,136.73
2019-01-10T15:39:12.015Z,136.93
2019-01-10T15:41:39.404Z,104.50
2019-01-10T15:44:06.740Z,101.10
2019-01-10T15:46:34.137Z,101.10
2019-01-10T15:49:01.585Z,112.77
2019-01-10T15:51:29.002Z,112.20
2019-01-10T15:53:58.952Z,119.00
2019-01-10T15:56:26.573Z,119.67
2019-01-10T15:58:54.027Z,100.73
2019-01-10T16:01:21.362Z,129.47
2019-01-10T16:03:48.888Z,95.97
2019-01-10T16:06:16.269Z,111.87
2019-01-10T16:08:43.624Z,111.90
2019-01-10T16:11:12.324Z,110.90
2019-01-10T16:13:39.793Z,117.60
2019-01-10T16:16:07.190Z,121.17
2019-01-10T16:18:34.862Z,101.10
2019-01-10T16:21:02.292Z,116.03
2019-01-10T16:23:29.755Z,118.70
2019-01-10T16:25:57.298Z,107.40
2019-01-10T16:28:26.400Z,110.53
2019-01-10T16:30:53.815Z,93.23
2019-01-10T16:33:21.190Z,77.20
2019-01-10T16:35:48.539Z,92.53
2019-01-10T16:38:16.025Z,95.33
2019-01-10T16:40:43.567Z,89.57
2019-01-10T16:43:12.038Z,89.97
2019-01-10T16:45:39.553Z,92.97
2019-01-10T16:48:07.161Z,95.13
2019-01-10T16:50:34.717Z,93.40
2019-01-10T16:53:02.117Z,73.27
2019-01-10T16:55:29.499Z,97.20
2019-01-10T16:57:56.996Z,102.97
2019-01-10T17:00:25.506Z,118.90
2019-01-10T17:02:54.604Z,108.90
2019-01-10T17:05:25.237Z,89.30
2019-01-10T17:07:52.815Z,99.90
2019-01-10T17:10:20.307Z,104.30
2019-01-10T17:12:47.651Z,86.90
2019-01-10T17:15:15.312Z,99.03
2019-01-10T17:17:44.308Z,96.00
2019-01-10T17:20:16.944Z,88.53
2019-01-10T17:22:44.560Z,98.67
2019-01-10T17:25:12.088Z,99.90
2019-01-10T17:27:40.710Z,105.70
2019-01-10T17:30:09.753Z,105.73
2019-01-10T17:32:37.606Z,109.87
2019-01-10T17:35:06.548Z,115.23
2019-01-10T17:37:33.994Z,108.20
2019-01-10T17:40:01.824Z,107.43
2019-01-10T17:42:29.592Z,107.90
2019-01-10T17:44:56.971Z,121.93
2019-01-10T17:47:24.389Z,120.93
2019-01-10T17:49:51.786Z,111.33
2019-01-10T17:52:24.956Z,115.10
2019-01-10T17:54:48.350Z,121.00
2019-01-10T17:57:15.667Z,110.13
2019-01-10T17:59:43.025Z,113.30
2019-01-10T18:02:10.562Z,118.23
2019-01-10T18:04:38.036Z,107.70
2019-01-10T18:07:05.520Z,83.77
2019-01-10T18:09:32.923Z,107.87
2019-01-10T18:12:01.967Z,95.97
2019-01-10T18:14:30.620Z,121.27
2019-01-10T18:16:59.650Z,127.90
2019-01-10T18:19:27.268Z,111.20
2019-01-10T18:21:54.677Z,116.73
2019-01-10T18:24:22.192Z,121.17
2019-01-10T18:26:49.733Z,108.23
2019-01-10T18:29:17.165Z,105.77
2019-01-10T18:31:44.632Z,118.20
2019-01-10T18:34:12.635Z,120.20
2019-01-10T18:36:40.190Z,128.37
2019-01-10T18:39:08.838Z,107.00
2019-01-10T18:41:36.376Z,135.47
2019-01-10T18:44:06.526Z,144.07
2019-01-10T18:46:33.928Z,127.57
2019-01-10T18:49:01.405Z,128.77
2019-01-10T18:51:28.946Z,126.20
2019-01-10T18:53:58.859Z,130.73
2019-01-10T18:56:26.589Z,142.93
2019-01-10T18:58:54.005Z,157.57
2019-01-10T19:01:21.511Z,143.87
2019-01-10T19:03:49.105Z,144.63
2019-01-10T19:06:18.311Z,155.60
2019-01-10T19:08:45.964Z,153.37
2019-01-10T19:11:13.665Z,121.43
2019-01-10T19:13:41.196Z,128.77
2019-01-10T19:16:08.780Z,127.93
2019-01-10T19:18:36.197Z,145.53
2019-01-10T19:21:03.571Z,136.23
2019-01-10T19:23:32.182Z,148.50
2019-01-10T19:25:59.609Z,126.60
2019-01-10T19:28:27.149Z,165.80
2019-01-10T19:30:54.690Z,159.73
2019-01-10T19:33:22.131Z,157.77
2019-01-10T19:35:49.645Z,165.80
2019-01-10T19:38:17.103Z,166.93
2019-01-10T19:40:44.546Z,165.10
2019-01-10T19:43:12.466Z,168.77
2019-01-10T19:45:40.051Z,171.63
2019-01-10T19:48:10.191Z,189.40
2019-01-10T19:50:37.710Z,186.77
2019-01-10T19:53:05.288Z,171.57
2019-01-10T19:55:34.407Z,182.80
2019-01-10T19:58:01.821Z,170.87
2019-01-10T20:00:30.634Z,192.83
2019-01-10T20:02:58.232Z,108.43
2019-01-10T20:05:26.000Z,169.63
2019-01-10T20:07:59.378Z,152.37
2019-01-10T20:10:26.841Z,150.43
2019-01-10T20:12:54.268Z,156.40
2019-01-10T20:15:21.702Z,156.10
2019-01-10T20:17:49.410Z,150.53
2019-01-10T20:20:24.338Z,152.87
2019-01-10T20:22:52.158Z,166.27
2019-01-10T20:25:19.549Z,156.13
2019-01-10T20:27:47.022Z,177.67
2019-01-10T20:30:16.579Z,163.07
2019-01-10T20:32:44.041Z,148.60
2019-01-10T20:35:13.181Z,160.37
2019-01-10T20:37:48.283Z,149.13
2019-01-10T20:40:19.051Z,135.77
2019-01-10T20:42:46.486Z,130.77
2019-01-10T20:45:13.954Z,136.60
2019-01-10T20:47:41.433Z,130.10
2019-01-10T20:50:10.275Z,132.27
2019-01-10T20:52:37.681Z,128.60
2019-01-10T20:55:07.075Z,130.33
2019-01-10T20:57:36.271Z,130.07
2019-01-10T21:00:05.256Z,123.70
2019-01-10T21:02:32.742Z,125.50
2019-01-10T21:05:01.431Z,132.97
2019-01-10T21:07:30.511Z,126.97
2019-01-10T21:10:00.771Z,129.47
2019-01-10T21:12:28.275Z,132.67
2019-01-10T21:14:55.931Z,136.07
2019-01-10T21:17:23.317Z,139.30
2019-01-10T21:19:50.808Z,131.13
2019-01-10T21:22:18.319Z,147.27
2019-01-10T21:24:45.793Z,156.57
2019-01-10T21:27:13.282Z,139.63
2019-01-10T21:29:40.739Z,123.17
2019-01-10T21:32:08.210Z,117.20
2019-01-10T21:34:35.723Z,139.87
2019-01-10T21:37:04.376Z,139.57
2019-01-10T21:39:31.841Z,125.47
2019-01-10T21:41:59.453Z,132.50
2019-01-10T21:44:28.391Z,122.00
2019-01-10T21:46:56.136Z,130.07
2019-01-10T21:49:23.685Z,142.40
2019-01-10T21:51:51.174Z,142.70
2019-01-10T21:54:20.167Z,158.20
2019-01-10T21:56:48.350Z,149.10
2019-01-10T21:59:15.740Z,146.50
2019-01-10T22:01:43.142Z,146.57
2019-01-10T22:04:10.795Z,153.13
2019-01-10T22:06:38.264Z,124.53
2019-01-10T22:09:06.378Z,117.33
2019-01-10T22:11:33.914Z,126.27
2019-01-10T22:14:01.352Z,131.60
2019-01-10T22:16:28.751Z,119.33
2019-01-10T22:18:56.262Z,127.93
2019-01-10T22:21:23.675Z,125.57
2019-01-10T22:23:51.095Z,137.83
2019-01-10T22:26:18.578Z,125.53
2019-01-10T22:28:47.573Z,132.20
2019-01-10T22:31:15.034Z,143.70
2019-01-10T22:33:44.463Z,137.10
2019-01-10T22:36:11.950Z,147.37
2019-01-10T22:38:40.341Z,151.10
2019-01-10T22:41:07.798Z,154.83
2019-01-10T22:43:35.238Z,145.43
2019-01-10T22:46:02.682Z,148.63
2019-01-10T22:48:30.201Z,151.47
2019-01-10T22:50:57.694Z,146.20
2019-01-10T22:53:25.189Z,139.63
2019-01-10T22:55:52.680Z,148.23
2019-01-10T22:58:22.897Z,148.90
2019-01-10T23:00:59.398Z,142.53
2019-01-10T23:03:27.710Z,148.97
2019-01-10T23:05:55.144Z,135.13
2019-01-10T23:08:22.657Z,144.40
2019-01-10T23:10:49.994Z,146.90
2019-01-10T23:13:17.378Z,140.47
2019-01-10T23:15:44.805Z,135.53
2019-01-10T23:18:12.192Z,137.93
2019-01-10T23:20:39.681Z,144.63
2019-01-10T23:23:08.322Z,144.50
2019-01-10T23:25:35.830Z,129.03
2019-01-10T23:28:03.464Z,146.63
2019-01-10T23:30:47.281Z,144.70
2019-01-10T23:33:14.766Z,148.90
2019-01-10T23:35:42.179Z,156.13
2019-01-10T23:38:10.400Z,149.07
2019-01-10T23:40:37.795Z,158.43
2019-01-10T23:43:05.560Z,156.70
2019-01-10T23:45:33.068Z,155.17
2019-01-10T23:48:01.500Z,159.20
2019-01-10T23:50:31.485Z,136.67
2019-01-10T23:52:59.128Z,145.03
2019-01-10T23:55:29.043Z,156.73
2019-01-10T23:57:56.562Z,170.13
